Time;durP1;ratioP1;P1;durP2;ratioP2;P2;SDS_P1;SDS_P2;PMS_P1;PMS_P2;Temp;Humidity;BMP_temperature;BMP_pressure;BME280_temperature;BME280_humidity;BME280_pressure;Samples;Min_cycle;Max_cycle;Signal;HPM_P1;HPM_P2
2024/02/01 00:02:02;;;;;;;82.55;14.23;;;;;;;;;;5048855;28;20029;-32
2024/02/01 00:04:29;;;;;;;116.28;16.55;;;;;;;;;;5050117;28;20029;-31
2024/02/01 00:06:56;;;;;;;109.13;17.50;;;;;;;;;;5050122;28;20094;-30
2024/02/01 00:09:23;;;;;;;126.07;18.02;;;;;;;;;;5050341;28;20067;-30
2024/02/01 00:11:50;;;;;;;110.68;15.48;;;;;;;;;;5049611;28;20518;-30
2024/02/01 00:14:17;;;;;;;108.65;15.32;;;;;;;;;;5054179;28;20116;-31
2024/02/01 00:16:44;;;;;;;87.68;14.20;;;;;;;;;;5049905;28;20037;-31
2024/02/01 00:19:11;;;;;;;91.05;13.27;;;;;;;;;;5048287;28;20051;-31
2024/02/01 00:21:38;;;;;;;91.68;13.45;;;;;;;;;;5054877;28;20033;-31
2024/02/01 00:24:05;;;;;;;78.20;13.38;;;;;;;;;;5054836;28;20029;-30
2024/02/01 00:26:32;;;;;;;111.32;13.65;;;;;;;;;;5054752;28;20028;-30
2024/02/01 00:28:59;;;;;;;119.65;14.40;;;;;;;;;;5054508;28;20559;-30
2024/02/01 00:31:26;;;;;;;89.18;12.20;;;;;;;;;;5048552;28;20438;-30
2024/02/01 00:33:54;;;;;;;93.32;12.57;;;;;;;;;;5054693;28;20506;-30
2024/02/01 00:36:21;;;;;;;94.57;13.02;;;;;;;;;;5039608;28;20060;-30
2024/02/01 00:38:48;;;;;;;117.68;15.55;;;;;;;;;;5046933;28;20475;-30
2024/02/01 00:41:15;;;;;;;131.98;15.80;;;;;;;;;;5040003;28;20116;-30
2024/02/01 00:43:44;;;;;;;136.40;16.73;;;;;;;;;;5041817;28;20036;-30
2024/02/01 00:46:13;;;;;;;108.38;15.63;;;;;;;;;;5034659;28;20140;-30
2024/02/01 00:48:40;;;;;;;79.43;10.40;;;;;;;;;;5047218;28;20041;-33
2024/02/01 00:51:08;;;;;;;63.03;10.98;;;;;;;;;;5050755;28;20035;-30
2024/02/01 00:53:35;;;;;;;65.90;11.82;;;;;;;;;;5054388;28;20120;-30
2024/02/01 00:56:02;;;;;;;50.13;10.68;;;;;;;;;;5049510;28;20079;-29
2024/02/01 00:58:29;;;;;;;33.72;7.13;;;;;;;;;;5034386;28;20033;-30
2024/02/01 01:00:56;;;;;;;49.13;7.28;;;;;;;;;;5051504;28;20119;-30
2024/02/01 01:03:23;;;;;;;41.92;7.32;;;;;;;;;;5054194;28;20056;-30
2024/02/01 01:05:50;;;;;;;38.38;5.03;;;;;;;;;;5038840;28;20079;-30
2024/02/01 01:08:17;;;;;;;25.45;4.32;;;;;;;;;;5053855;28;20029;-30
2024/02/01 01:10:45;;;;;;;27.77;4.30;;;;;;;;;;5053201;28;20029;-30
2024/02/01 01:13:13;;;;;;;28.67;3.65;;;;;;;;;;5053552;28;20052;-30
2024/02/01 01:15:39;;;;;;;31.08;3.08;;;;;;;;;;5053806;28;20052;-31
2024/02/01 01:18:07;;;;;;;29.90;2.78;;;;;;;;;;5042349;28;20033;-31
2024/02/01 01:20:34;;;;;;;35.00;2.88;;;;;;;;;;5052437;28;20041;-31
2024/02/01 01:23:01;;;;;;;27.77;2.75;;;;;;;;;;5052699;28;20035;-31
2024/02/01 01:25:28;;;;;;;39.15;2.90;;;;;;;;;;5053775;28;20116;-31
2024/02/01 01:27:55;;;;;;;44.60;3.63;;;;;;;;;;5053618;28;20036;-31
2024/02/01 01:30:22;;;;;;;44.67;2.95;;;;;;;;;;5053614;28;20036;-31
2024/02/01 01:32:49;;;;;;;45.65;4.13;;;;;;;;;;5053691;28;20466;-31
2024/02/01 01:35:16;;;;;;;38.22;3.05;;;;;;;;;;5053444;28;20127;-31
2024/02/01 01:37:44;;;;;;;36.13;2.47;;;;;;;;;;5053704;28;20020;-31
2024/02/01 01:40:11;;;;;;;19.00;2.35;;;;;;;;;;5053079;28;20029;-31
2024/02/01 01:42:38;;;;;;;18.42;1.88;;;;;;;;;;5053644;28;20029;-30
2024/02/01 01:45:05;;;;;;;18.52;1.67;;;;;;;;;;5043379;28;20041;-31
2024/02/01 01:47:32;;;;;;;12.40;1.88;;;;;;;;;;5045468;28;20375;-31
2024/02/01 01:49:59;;;;;;;13.13;1.80;;;;;;;;;;5047004;28;20052;-31
2024/02/01 01:52:26;;;;;;;14.07;2.17;;;;;;;;;;5053424;28;20498;-30
2024/02/01 01:54:57;;;;;;;14.63;1.50;;;;;;;;;;5053245;28;20017;-30
2024/02/01 01:57:24;;;;;;;9.85;1.30;;;;;;;;;;5051243;28;20044;-31
2024/02/01 01:59:51;;;;;;;9.68;1.63;;;;;;;;;;5051803;28;20441;-31
2024/02/01 02:02:18;;;;;;;14.55;1.50;;;;;;;;;;5053263;28;20029;-31
2024/02/01 02:04:45;;;;;;;13.57;1.90;;;;;;;;;;5053105;28;20462;-31
2024/02/01 02:07:12;;;;;;;9.18;1.42;;;;;;;;;;5052726;28;20128;-30
2024/02/01 02:09:39;;;;;;;5.28;1.48;;;;;;;;;;5053021;28;20119;-31
2024/02/01 02:12:06;;;;;;;10.57;1.50;;;;;;;;;;5059054;28;20024;-30
2024/02/01 02:14:33;;;;;;;12.30;1.20;;;;;;;;;;5059230;28;20411;-31
2024/02/01 02:17:00;;;;;;;10.55;1.50;;;;;;;;;;5052051;28;20037;-30
2024/02/01 02:19:28;;;;;;;10.02;1.38;;;;;;;;;;5046686;28;20072;-31
2024/02/01 02:21:55;;;;;;;10.57;1.33;;;;;;;;;;5047516;28;20475;-31
2024/02/01 02:24:22;;;;;;;6.65;1.20;;;;;;;;;;5052765;28;20043;-30
2024/02/01 02:26:50;;;;;;;10.35;1.00;;;;;;;;;;5052607;28;20119;-30
2024/02/01 02:29:17;;;;;;;21.35;10.55;;;;;;;;;;5047857;28;20039;-30
2024/02/01 02:31:45;;;;;;;32.03;13.93;;;;;;;;;;5052430;28;20029;-30
2024/02/01 02:34:12;;;;;;;20.45;10.27;;;;;;;;;;5052270;28;20078;-30
2024/02/01 02:36:40;;;;;;;19.08;8.43;;;;;;;;;;5052390;28;20423;-30
2024/02/01 02:39:09;;;;;;;12.93;6.07;;;;;;;;;;5052287;28;20047;-30
2024/02/01 02:41:40;;;;;;;15.55;4.38;;;;;;;;;;5052276;28;20065;-30
2024/02/01 02:44:10;;;;;;;11.25;2.67;;;;;;;;;;5052251;28;20065;-30
2024/02/01 02:46:38;;;;;;;12.15;2.80;;;;;;;;;;5051042;28;20037;-30
2024/02/01 02:49:08;;;;;;;3.88;1.70;;;;;;;;;;5044239;28;20045;-30
2024/02/01 02:51:35;;;;;;;9.18;1.52;;;;;;;;;;5043402;28;20043;-30
2024/02/01 02:54:03;;;;;;;8.43;1.60;;;;;;;;;;5037752;28;20033;-31
2024/02/01 02:56:31;;;;;;;28.83;1.80;;;;;;;;;;5064061;28;20071;-30
2024/02/01 02:58:59;;;;;;;11.07;1.90;;;;;;;;;;5051158;28;20028;-29
2024/02/01 03:01:27;;;;;;;11.13;1.70;;;;;;;;;;5041809;28;20033;-30
2024/02/01 03:03:54;;;;;;;10.70;1.63;;;;;;;;;;5049652;28;20032;-29
2024/02/01 03:06:21;;;;;;;10.48;1.50;;;;;;;;;;5051789;28;20020;-29
2024/02/01 03:08:48;;;;;;;10.68;1.20;;;;;;;;;;5051675;28;20049;-30
2024/02/01 03:11:15;;;;;;;8.93;1.40;;;;;;;;;;5051596;28;20017;-30
2024/02/01 03:13:45;;;;;;;7.07;1.40;;;;;;;;;;5041313;28;20361;-30
2024/02/01 03:16:20;;;;;;;10.02;1.58;;;;;;;;;;5032484;28;20538;-30
2024/02/01 03:18:48;;;;;;;14.82;1.77;;;;;;;;;;5044640;28;20032;-30
2024/02/01 03:21:16;;;;;;;8.68;1.45;;;;;;;;;;5042152;28;20491;-30
2024/02/01 03:23:44;;;;;;;6.68;1.95;;;;;;;;;;5050610;28;20060;-30
2024/02/01 03:26:13;;;;;;;15.57;1.50;;;;;;;;;;5051446;28;20029;-29
2024/02/01 03:28:44;;;;;;;9.93;1.60;;;;;;;;;;5050921;28;20123;-29
2024/02/01 03:31:14;;;;;;;8.95;1.25;;;;;;;;;;5051678;28;20029;-29
2024/02/01 03:33:44;;;;;;;8.55;1.50;;;;;;;;;;5039733;28;20414;-30
2024/02/01 03:36:11;;;;;;;6.53;1.30;;;;;;;;;;5050898;28;20033;-29
2024/02/01 03:38:42;;;;;;;9.18;1.55;;;;;;;;;;5051173;28;20029;-29
2024/02/01 03:41:11;;;;;;;13.82;1.48;;;;;;;;;;5051414;28;20407;-30
2024/02/01 03:43:38;;;;;;;9.60;1.52;;;;;;;;;;5051540;28;20078;-30
2024/02/01 03:49:56;;;;;;;9.60;1.90;;;;;;;;;;5034719;28;20045;-30
2024/02/01 03:52:23;;;;;;;12.68;2.88;;;;;;;;;;5050278;28;20045;-31
2024/02/01 03:54:54;;;;;;;14.57;4.15;;;;;;;;;;5051505;28;20037;-29
2024/02/01 03:57:21;;;;;;;43.63;14.15;;;;;;;;;;5036033;28;20128;-30
2024/02/01 03:59:52;;;;;;;85.35;28.80;;;;;;;;;;5029824;28;20029;-34
2024/02/01 04:02:20;;;;;;;107.13;39.58;;;;;;;;;;5031451;28;20483;-30
2024/02/01 04:04:47;;;;;;;96.50;36.83;;;;;;;;;;5041582;28;20055;-30
2024/02/01 04:07:20;;;;;;;66.40;26.92;;;;;;;;;;5050960;28;20029;-30
2024/02/01 04:09:47;;;;;;;43.20;16.05;;;;;;;;;;5051258;28;20387;-30
2024/02/01 04:12:17;;;;;;;32.72;11.20;;;;;;;;;;5051294;28;20064;-30
2024/02/01 04:14:47;;;;;;;22.23;7.28;;;;;;;;;;5051207;28;20025;-31
2024/02/01 04:17:14;;;;;;;14.23;4.95;;;;;;;;;;5051268;28;20545;-30
2024/02/01 04:19:41;;;;;;;10.40;2.88;;;;;;;;;;5050919;28;20124;-30
2024/02/01 04:22:10;;;;;;;11.65;3.42;;;;;;;;;;5051219;28;20017;-30
2024/02/01 04:24:37;;;;;;;16.67;3.05;;;;;;;;;;5051156;28;20044;-30
2024/02/01 04:27:04;;;;;;;17.05;2.35;;;;;;;;;;5050875;28;20025;-30
2024/02/01 04:29:31;;;;;;;13.20;2.22;;;;;;;;;;5050857;28;20143;-30
2024/02/01 04:31:58;;;;;;;10.95;2.88;;;;;;;;;;5051162;28;20383;-30
2024/02/01 04:34:25;;;;;;;16.63;5.03;;;;;;;;;;5051103;28;20028;-30
2024/02/01 04:36:55;;;;;;;28.27;9.85;;;;;;;;;;5051092;28;20036;-31
2024/02/01 04:39:22;;;;;;;33.75;11.13;;;;;;;;;;5050862;28;20479;-30
2024/02/01 04:42:04;;;;;;;30.25;9.68;;;;;;;;;;5050967;28;20028;-31
2024/02/01 04:44:31;;;;;;;23.58;7.63;;;;;;;;;;5050902;28;20509;-30
2024/02/01 04:46:58;;;;;;;25.25;7.40;;;;;;;;;;5049610;28;20028;-30
2024/02/01 04:49:26;;;;;;;16.33;5.63;;;;;;;;;;5050851;28;20609;-30
2024/02/01 04:51:55;;;;;;;15.65;4.00;;;;;;;;;;5049820;28;20433;-31
2024/02/01 04:54:22;;;;;;;14.18;3.85;;;;;;;;;;5050994;28;20490;-30
2024/02/01 04:56:49;;;;;;;11.93;3.00;;;;;;;;;;5050864;28;20452;-30
2024/02/01 04:59:16;;;;;;;17.40;2.60;;;;;;;;;;5054036;28;20041;-30
2024/02/01 05:01:43;;;;;;;13.15;2.35;;;;;;;;;;5054452;28;20032;-30
2024/02/01 05:04:13;;;;;;;9.43;2.03;;;;;;;;;;5054406;28;20044;-30
2024/02/01 05:06:43;;;;;;;10.52;2.00;;;;;;;;;;5054500;28;20379;-30
2024/02/01 05:09:32;;;;;;;9.93;1.90;;;;;;;;;;5054289;28;20467;-30
2024/02/01 05:11:59;;;;;;;10.95;1.92;;;;;;;;;;5054299;28;20403;-30
2024/02/01 05:14:26;;;;;;;9.98;1.75;;;;;;;;;;5054205;28;20033;-30
2024/02/01 05:16:53;;;;;;;7.47;1.60;;;;;;;;;;5054011;28;20024;-30
2024/02/01 05:19:21;;;;;;;14.23;1.90;;;;;;;;;;5054032;28;20498;-30
2024/02/01 05:21:48;;;;;;;11.05;1.90;;;;;;;;;;5054160;28;20052;-30
2024/02/01 05:24:15;;;;;;;10.40;1.70;;;;;;;;;;5053993;28;20478;-30
2024/02/01 05:26:46;;;;;;;8.63;1.58;;;;;;;;;;5053993;28;20506;-30
2024/02/01 05:29:13;;;;;;;8.68;1.50;;;;;;;;;;5053786;28;20037;-30
2024/02/01 05:31:47;;;;;;;10.82;1.77;;;;;;;;;;5053724;28;20090;-30
2024/02/01 05:34:17;;;;;;;15.88;1.95;;;;;;;;;;5053855;28;20094;-30
2024/02/01 05:36:46;;;;;;;6.55;1.25;;;;;;;;;;5053911;28;20380;-29
2024/02/01 05:39:25;;;;;;;6.45;1.60;;;;;;;;;;5053568;28;20491;-30
2024/02/01 05:41:53;;;;;;;10.48;1.30;;;;;;;;;;5053842;28;20086;-30
2024/02/01 05:44:21;;;;;;;6.60;1.67;;;;;;;;;;5053637;28;20025;-30
2024/02/01 05:46:55;;;;;;;7.80;1.63;;;;;;;;;;5053597;28;20044;-30
2024/02/01 05:49:23;;;;;;;8.77;1.70;;;;;;;;;;5053469;28;20029;-30
2024/02/01 05:51:50;;;;;;;9.65;1.67;;;;;;;;;;5053634;28;20029;-30
2024/02/01 05:54:19;;;;;;;10.25;1.95;;;;;;;;;;5053331;28;20027;-30
2024/02/01 05:56:47;;;;;;;6.32;1.70;;;;;;;;;;5053379;28;20064;-30
2024/02/01 05:59:15;;;;;;;9.30;1.83;;;;;;;;;;5053372;28;20032;-30
2024/02/01 06:01:43;;;;;;;9.50;1.73;;;;;;;;;;5050780;28;20475;-30
2024/02/01 06:04:10;;;;;;;7.70;1.58;;;;;;;;;;5053299;28;20055;-30
2024/02/01 06:06:39;;;;;;;7.05;1.40;;;;;;;;;;5051993;28;20399;-30
2024/02/01 06:09:12;;;;;;;11.18;2.00;;;;;;;;;;5052670;28;20037;-30
2024/02/01 06:11:44;;;;;;;9.40;1.65;;;;;;;;;;5053296;28;20387;-30
2024/02/01 06:14:14;;;;;;;7.63;1.48;;;;;;;;;;5053288;28;20059;-30
2024/02/01 06:16:42;;;;;;;5.53;1.33;;;;;;;;;;5053300;28;20458;-30
2024/02/01 06:19:09;;;;;;;6.10;1.48;;;;;;;;;;5053045;28;20115;-29
2024/02/01 06:21:36;;;;;;;6.80;1.58;;;;;;;;;;5053149;28;20021;-30
2024/02/01 06:24:04;;;;;;;10.50;1.70;;;;;;;;;;5052688;28;20032;-30
2024/02/01 06:26:31;;;;;;;5.45;1.17;;;;;;;;;;5052903;28;20029;-30
2024/02/01 06:29:07;;;;;;;5.32;1.42;;;;;;;;;;5052729;28;20021;-30
2024/02/01 06:31:38;;;;;;;6.53;1.25;;;;;;;;;;5052655;28;20041;-30
2024/02/01 06:34:09;;;;;;;6.25;1.50;;;;;;;;;;5052906;28;20049;-30
2024/02/01 06:36:38;;;;;;;4.80;1.05;;;;;;;;;;5052908;28;20123;-30
2024/02/01 06:39:10;;;;;;;6.18;1.38;;;;;;;;;;5052537;28;20513;-30
2024/02/01 06:44:21;;;;;;;12.13;1.88;;;;;;;;;;5052447;28;20044;-30
2024/02/01 06:46:49;;;;;;;4.32;1.38;;;;;;;;;;5052685;28;20399;-30
2024/02/01 06:57:22;;;;;;;6.18;1.70;;;;;;;;;;5052252;28;20068;-30
2024/02/01 07:08:34;;;;;;;7.47;1.23;;;;;;;;;;4972361;28;20141;-30
2024/02/01 07:16:24;;;;;;;5.97;1.55;;;;;;;;;;5052357;28;20033;-30
2024/02/01 07:19:12;;;;;;;6.28;1.63;;;;;;;;;;5052055;28;20134;-30
2024/02/01 07:22:32;;;;;;;7.68;1.67;;;;;;;;;;5051136;28;20102;-30
2024/02/01 07:57:58;;;;;;;12.82;1.95;;;;;;;;;;5051211;28;20064;-30
2024/02/01 08:00:33;;;;;;;12.65;2.33;;;;;;;;;;5051562;28;20028;-29
2024/02/01 08:03:22;;;;;;;12.27;1.65;;;;;;;;;;5051711;28;20064;-29
2024/02/01 08:08:35;;;;;;;12.77;2.20;;;;;;;;;;5051421;28;20048;-29
2024/02/01 08:11:03;;;;;;;18.63;1.80;;;;;;;;;;5051464;28;20116;-29
2024/02/01 08:13:30;;;;;;;10.95;1.88;;;;;;;;;;5051415;28;20540;-30
2024/02/01 08:15:57;;;;;;;9.45;1.70;;;;;;;;;;5051349;28;20025;-29
2024/02/01 08:18:34;;;;;;;11.23;1.95;;;;;;;;;;5051267;28;20040;-29
2024/02/01 08:21:14;;;;;;;23.58;4.47;;;;;;;;;;5051430;28;20628;-29
2024/02/01 08:23:41;;;;;;;25.02;4.93;;;;;;;;;;5051323;28;20033;-29
2024/02/01 08:26:08;;;;;;;26.25;6.50;;;;;;;;;;5051378;28;20475;-29
2024/02/01 08:28:35;;;;;;;30.60;6.38;;;;;;;;;;5051134;28;20108;-29
2024/02/01 08:31:12;;;;;;;30.52;6.10;;;;;;;;;;5051275;28;20491;-29
2024/02/01 08:33:42;;;;;;;19.63;5.25;;;;;;;;;;5053671;28;20033;-29
2024/02/01 08:36:12;;;;;;;17.83;3.97;;;;;;;;;;5055152;28;20017;-29
2024/02/01 08:38:40;;;;;;;14.82;4.15;;;;;;;;;;5054554;28;20445;-29
2024/02/01 08:41:07;;;;;;;13.48;3.50;;;;;;;;;;5054808;28;20048;-29
2024/02/01 08:43:38;;;;;;;12.00;3.70;;;;;;;;;;5055050;28;20422;-29
2024/02/01 08:46:05;;;;;;;13.17;2.90;;;;;;;;;;5054969;28;20399;-29
2024/02/01 08:48:32;;;;;;;8.07;2.25;;;;;;;;;;5054647;28;20037;-29
2024/02/01 08:50:59;;;;;;;9.88;2.28;;;;;;;;;;5037034;28;20146;-30
2024/02/01 08:53:27;;;;;;;13.60;2.60;;;;;;;;;;5054730;28;20037;-29
2024/02/01 08:55:53;;;;;;;10.65;2.40;;;;;;;;;;5054594;28;20025;-30
2024/02/01 08:58:20;;;;;;;14.07;2.70;;;;;;;;;;5054745;28;20415;-29
2024/02/01 09:00:49;;;;;;;12.00;2.40;;;;;;;;;;5054666;28;20021;-29
2024/02/01 09:03:16;;;;;;;12.55;3.35;;;;;;;;;;5054497;28;20372;-30
2024/02/01 09:05:44;;;;;;;12.95;4.00;;;;;;;;;;5054569;28;20123;-29
2024/02/01 09:08:12;;;;;;;16.02;4.20;;;;;;;;;;5054426;28;20021;-29
2024/02/01 09:11:09;;;;;;;16.42;4.03;;;;;;;;;;5054504;28;20055;-29
2024/02/01 09:13:30;;;;;;;16.27;4.20;;;;;;;;;;5053642;28;20102;-29
2024/02/01 09:15:57;;;;;;;20.95;4.00;;;;;;;;;;5054419;28;20040;-29
2024/02/01 09:18:24;;;;;;;14.73;3.95;;;;;;;;;;5054281;28;20101;-29
2024/02/01 09:20:52;;;;;;;17.60;3.95;;;;;;;;;;5054372;28;20104;-29
2024/02/01 09:23:22;;;;;;;19.50;4.03;;;;;;;;;;5054070;28;20119;-30
2024/02/01 09:25:49;;;;;;;19.48;4.80;;;;;;;;;;5054026;28;20040;-29
2024/02/01 09:28:16;;;;;;;22.80;4.57;;;;;;;;;;5053828;28;20025;-30
2024/02/01 09:30:47;;;;;;;15.35;4.30;;;;;;;;;;5054059;28;20112;-29
2024/02/01 09:33:15;;;;;;;17.50;4.03;;;;;;;;;;5054076;28;20037;-29
2024/02/01 09:35:42;;;;;;;18.30;5.13;;;;;;;;;;5053857;28;20041;-29
2024/02/01 09:38:09;;;;;;;22.67;6.50;;;;;;;;;;5053933;28;20032;-29
2024/02/01 09:40:43;;;;;;;41.20;9.13;;;;;;;;;;5053855;28;20025;-29
2024/02/01 09:43:17;;;;;;;42.15;11.32;;;;;;;;;;5053909;28;20163;-29
2024/02/01 09:45:44;;;;;;;45.15;11.02;;;;;;;;;;5052767;28;20043;-29
2024/02/01 09:48:18;;;;;;;53.83;12.25;;;;;;;;;;5053666;28;20454;-29
2024/02/01 09:50:56;;;;;;;44.88;14.00;;;;;;;;;;5053768;28;20029;-29
2024/02/01 09:53:24;;;;;;;57.67;14.70;;;;;;;;;;5053400;28;20029;-29
2024/02/01 09:55:52;;;;;;;52.15;15.50;;;;;;;;;;5053262;28;20117;-30
2024/02/01 09:58:23;;;;;;;46.47;13.90;;;;;;;;;;5053498;28;20040;-29
2024/02/01 10:00:50;;;;;;;54.00;15.88;;;;;;;;;;5053287;28;20425;-30
2024/02/01 10:03:23;;;;;;;45.03;14.90;;;;;;;;;;5053219;28;20025;-29
2024/02/01 10:05:53;;;;;;;70.90;16.98;;;;;;;;;;5052782;28;20025;-29
2024/02/01 10:08:20;;;;;;;61.75;13.75;;;;;;;;;;5052718;28;20398;-29
2024/02/01 10:10:48;;;;;;;59.40;14.35;;;;;;;;;;5053334;28;20025;-29
2024/02/01 10:13:18;;;;;;;55.97;13.35;;;;;;;;;;5053195;28;20051;-29
2024/02/01 10:15:45;;;;;;;50.47;13.25;;;;;;;;;;5039828;28;20041;-30
2024/02/01 10:18:16;;;;;;;58.35;12.13;;;;;;;;;;5033318;28;20033;-29
2024/02/01 10:20:54;;;;;;;51.47;10.80;;;;;;;;;;5033242;28;20041;-29
2024/02/01 10:23:21;;;;;;;38.80;9.63;;;;;;;;;;5049836;28;20025;-29
2024/02/01 10:25:55;;;;;;;37.97;9.15;;;;;;;;;;5052499;28;20483;-29
2024/02/01 10:28:25;;;;;;;37.35;8.85;;;;;;;;;;5050995;28;20063;-30
2024/02/01 10:30:52;;;;;;;37.42;8.65;;;;;;;;;;5051662;28;20028;-29
2024/02/01 10:33:25;;;;;;;36.53;8.60;;;;;;;;;;5051772;28;20071;-29
2024/02/01 10:35:53;;;;;;;40.60;8.13;;;;;;;;;;5052088;28;20064;-30
2024/02/01 10:38:21;;;;;;;33.28;7.20;;;;;;;;;;5049468;28;20067;-30
2024/02/01 10:41:02;;;;;;;34.65;6.93;;;;;;;;;;5052183;28;20029;-29
2024/02/01 10:43:35;;;;;;;35.58;6.03;;;;;;;;;;5052644;28;20386;-29
2024/02/01 10:46:08;;;;;;;29.85;4.97;;;;;;;;;;5049663;28;20119;-30
2024/02/01 10:48:41;;;;;;;27.67;4.07;;;;;;;;;;5052443;28;20483;-29
2024/02/01 10:51:11;;;;;;;31.23;4.72;;;;;;;;;;5052551;28;20394;-29
2024/02/01 10:53:43;;;;;;;33.95;5.82;;;;;;;;;;5052460;28;20475;-29
2024/02/01 10:56:14;;;;;;;32.88;4.65;;;;;;;;;;5052199;28;20103;-29
2024/02/01 10:58:45;;;;;;;27.08;4.00;;;;;;;;;;5052499;28;20037;-29
2024/02/01 11:01:19;;;;;;;23.70;3.92;;;;;;;;;;5051929;28;20104;-29
2024/02/01 11:04:00;;;;;;;25.20;3.72;;;;;;;;;;5052309;28;20029;-29
2024/02/01 11:06:28;;;;;;;19.88;3.60;;;;;;;;;;5052402;28;20029;-29
2024/02/01 11:08:56;;;;;;;29.27;3.95;;;;;;;;;;5051823;28;20045;-29
2024/02/01 11:11:36;;;;;;;25.17;3.88;;;;;;;;;;5052272;28;20037;-29
2024/02/01 11:14:10;;;;;;;33.30;4.35;;;;;;;;;;5052168;28;20086;-29
2024/02/01 11:16:48;;;;;;;25.88;4.10;;;;;;;;;;5052049;28;20054;-29
2024/02/01 11:19:25;;;;;;;29.63;3.60;;;;;;;;;;5051965;28;20044;-29
2024/02/01 11:21:56;;;;;;;24.10;3.63;;;;;;;;;;5052087;28;20051;-29
2024/02/01 11:24:43;;;;;;;29.88;4.22;;;;;;;;;;5052008;28;20388;-29
2024/02/01 11:27:13;;;;;;;40.58;5.25;;;;;;;;;;5050657;28;20024;-29
2024/02/01 11:29:47;;;;;;;35.13;4.82;;;;;;;;;;5051855;28;20033;-29
2024/02/01 11:32:18;;;;;;;48.55;6.45;;;;;;;;;;5051832;28;20494;-29
2024/02/01 11:34:49;;;;;;;47.25;5.50;;;;;;;;;;5051935;28;20081;-29
2024/02/01 11:37:17;;;;;;;59.17;7.30;;;;;;;;;;5051791;28;20029;-29
2024/02/01 11:43:04;;;;;;;38.88;5.13;;;;;;;;;;5051353;28;20037;-29
2024/02/01 11:45:31;;;;;;;33.97;3.90;;;;;;;;;;5051740;28;20025;-29
2024/02/01 11:47:58;;;;;;;28.75;4.20;;;;;;;;;;5051568;28;20043;-29
2024/02/01 11:50:26;;;;;;;28.05;4.35;;;;;;;;;;5051666;28;20050;-29
2024/02/01 11:53:08;;;;;;;26.77;3.92;;;;;;;;;;5051705;28;20095;-29
2024/02/01 11:55:35;;;;;;;25.50;3.35;;;;;;;;;;5051523;28;20505;-29
2024/02/01 11:58:05;;;;;;;22.88;3.08;;;;;;;;;;5051356;28;20041;-29
2024/02/01 12:00:32;;;;;;;23.80;3.33;;;;;;;;;;5051524;28;20041;-29
2024/02/01 12:02:59;;;;;;;23.30;3.22;;;;;;;;;;5051654;28;20483;-29
2024/02/01 12:05:26;;;;;;;16.80;2.53;;;;;;;;;;5051599;28;20089;-29
2024/02/01 12:07:53;;;;;;;20.60;2.97;;;;;;;;;;5052647;28;20041;-29
2024/02/01 12:10:22;;;;;;;20.05;3.05;;;;;;;;;;5055566;28;20033;-29
2024/02/01 12:12:50;;;;;;;22.08;3.58;;;;;;;;;;5055451;28;20555;-29
2024/02/01 12:15:17;;;;;;;25.67;3.88;;;;;;;;;;5055191;28;20040;-29
2024/02/01 12:18:10;;;;;;;27.27;3.88;;;;;;;;;;5055350;28;20025;-29
2024/02/01 12:20:41;;;;;;;40.53;4.05;;;;;;;;;;5052359;28;20071;-29
2024/02/01 12:23:08;;;;;;;30.88;3.55;;;;;;;;;;5054738;28;20541;-29
2024/02/01 12:25:35;;;;;;;27.10;3.80;;;;;;;;;;5053516;28;20036;-29
2024/02/01 12:28:03;;;;;;;35.00;4.22;;;;;;;;;;5046211;28;20048;-29
2024/02/01 12:30:31;;;;;;;27.55;3.50;;;;;;;;;;5048710;28;20046;-29
2024/02/01 12:32:59;;;;;;;21.77;3.63;;;;;;;;;;5043585;28;20037;-30
2024/02/01 12:35:25;;;;;;;19.88;3.42;;;;;;;;;;5044869;28;20039;-30
2024/02/01 12:37:52;;;;;;;31.17;4.22;;;;;;;;;;5054130;28;20445;-30
2024/02/01 12:40:19;;;;;;;24.58;4.43;;;;;;;;;;5055144;28;20025;-31
2024/02/01 12:42:48;;;;;;;28.23;3.70;;;;;;;;;;5047109;28;20549;-31
2024/02/01 12:45:19;;;;;;;17.40;3.55;;;;;;;;;;5038349;28;20049;-31
2024/02/01 12:47:53;;;;;;;18.75;3.03;;;;;;;;;;5044684;28;20060;-31
2024/02/01 12:50:22;;;;;;;23.63;3.58;;;;;;;;;;5054187;28;20047;-31
2024/02/01 12:52:50;;;;;;;19.55;3.25;;;;;;;;;;5054373;28;20037;-32
2024/02/01 12:55:35;;;;;;;26.15;3.58;;;;;;;;;;5042548;28;20039;-30
2024/02/01 12:58:24;;;;;;;13.65;3.30;;;;;;;;;;5053781;28;20053;-31
2024/02/01 13:01:00;;;;;;;18.48;3.33;;;;;;;;;;5054395;28;20502;-31
2024/02/01 13:03:27;;;;;;;15.18;3.00;;;;;;;;;;5042786;28;20052;-31
2024/02/01 13:05:54;;;;;;;15.15;3.20;;;;;;;;;;5052195;28;20042;-31
2024/02/01 13:08:21;;;;;;;13.85;3.00;;;;;;;;;;5048329;28;20508;-31
2024/02/01 13:10:49;;;;;;;11.80;2.63;;;;;;;;;;5045969;28;20060;-31
2024/02/01 13:13:16;;;;;;;15.48;3.55;;;;;;;;;;5052221;28;20040;-31
2024/02/01 13:15:46;;;;;;;18.40;3.08;;;;;;;;;;5046835;28;20030;-31
2024/02/01 13:18:17;;;;;;;18.50;3.40;;;;;;;;;;5046885;28;20032;-31
2024/02/01 13:20:45;;;;;;;17.70;3.50;;;;;;;;;;5052639;28;20037;-31
2024/02/01 13:23:12;;;;;;;26.75;3.97;;;;;;;;;;5048921;28;20041;-30
2024/02/01 13:25:41;;;;;;;15.13;3.35;;;;;;;;;;5039792;28;20036;-30
2024/02/01 13:28:08;;;;;;;16.33;3.38;;;;;;;;;;5052529;28;20124;-31
2024/02/01 13:30:39;;;;;;;15.93;3.30;;;;;;;;;;5049745;28;20102;-31
2024/02/01 13:33:08;;;;;;;18.67;3.20;;;;;;;;;;5050541;28;20041;-31
2024/02/01 13:35:39;;;;;;;15.52;3.55;;;;;;;;;;5053503;28;20037;-30
2024/02/01 13:38:09;;;;;;;17.13;3.38;;;;;;;;;;5044433;28;20030;-30
2024/02/01 13:40:37;;;;;;;15.30;3.20;;;;;;;;;;5050794;28;20033;-31
2024/02/01 13:43:05;;;;;;;17.75;3.65;;;;;;;;;;5053115;28;20048;-31
2024/02/01 13:45:32;;;;;;;24.42;4.50;;;;;;;;;;5038434;28;20032;-31
2024/02/01 13:47:59;;;;;;;19.52;4.10;;;;;;;;;;5046167;28;20117;-30
2024/02/01 13:50:27;;;;;;;16.15;3.92;;;;;;;;;;5045378;28;20552;-31
2024/02/01 13:52:55;;;;;;;19.40;3.28;;;;;;;;;;5053001;28;20036;-30
2024/02/01 13:55:23;;;;;;;12.82;3.92;;;;;;;;;;5052778;28;20075;-31
2024/02/01 13:57:50;;;;;;;12.38;3.17;;;;;;;;;;5052899;28;20049;-30
2024/02/01 14:00:18;;;;;;;17.63;3.22;;;;;;;;;;5051756;28;20041;-31
2024/02/01 14:02:55;;;;;;;13.38;3.00;;;;;;;;;;5053093;28;20041;-30
2024/02/01 14:05:22;;;;;;;16.13;3.17;;;;;;;;;;5052713;28;20029;-30
2024/02/01 14:07:50;;;;;;;21.05;3.03;;;;;;;;;;5052402;28;20040;-29
2024/02/01 14:10:17;;;;;;;14.73;3.05;;;;;;;;;;5051156;28;20036;-30
2024/02/01 14:12:44;;;;;;;18.95;2.88;;;;;;;;;;5051826;28;20040;-30
2024/02/01 14:15:12;;;;;;;16.33;2.90;;;;;;;;;;5047331;28;20052;-31
2024/02/01 14:17:39;;;;;;;13.15;3.13;;;;;;;;;;5052251;28;20406;-30
2024/02/01 14:20:14;;;;;;;12.48;2.78;;;;;;;;;;5052426;28;20033;-29
2024/02/01 14:22:44;;;;;;;17.58;3.28;;;;;;;;;;5052104;28;20036;-30
2024/02/01 14:25:12;;;;;;;11.82;2.65;;;;;;;;;;5052485;28;20083;-30
2024/02/01 14:27:39;;;;;;;11.25;2.70;;;;;;;;;;5052226;28;20033;-30
2024/02/01 14:30:10;;;;;;;16.25;3.28;;;;;;;;;;5051738;28;20045;-30
2024/02/01 14:32:38;;;;;;;13.43;2.70;;;;;;;;;;5051951;28;20475;-35
2024/02/01 14:35:07;;;;;;;11.30;2.95;;;;;;;;;;5052402;28;20033;-30
2024/02/01 14:37:34;;;;;;;10.50;2.53;;;;;;;;;;5051885;28;20037;-30
2024/02/01 14:40:02;;;;;;;13.02;2.88;;;;;;;;;;5051597;28;20017;-29
2024/02/01 14:42:29;;;;;;;14.73;2.60;;;;;;;;;;5051935;28;20162;-30
2024/02/01 14:44:56;;;;;;;15.48;2.70;;;;;;;;;;5045674;28;20051;-30
2024/02/01 14:47:24;;;;;;;13.18;2.92;;;;;;;;;;5048113;28;20069;-31
2024/02/01 14:49:50;;;;;;;13.75;2.65;;;;;;;;;;5049110;28;20083;-30
2024/02/01 14:52:18;;;;;;;13.93;2.78;;;;;;;;;;5040963;28;20029;-31
2024/02/01 14:54:47;;;;;;;10.55;2.67;;;;;;;;;;5051975;28;20029;-30
2024/02/01 14:57:14;;;;;;;11.82;2.58;;;;;;;;;;5051636;28;20067;-30
2024/02/01 14:59:41;;;;;;;8.70;2.42;;;;;;;;;;5051346;28;20120;-30
2024/02/01 15:02:08;;;;;;;13.07;3.08;;;;;;;;;;5051709;28;20036;-30
2024/02/01 15:04:35;;;;;;;11.70;2.17;;;;;;;;;;5048307;28;20048;-30
2024/02/01 15:07:02;;;;;;;10.20;2.45;;;;;;;;;;5045492;28;20033;-30
2024/02/01 15:09:33;;;;;;;9.88;2.13;;;;;;;;;;5047918;28;20046;-30
2024/02/01 15:12:00;;;;;;;8.90;2.28;;;;;;;;;;5052040;28;20116;-29
2024/02/01 15:14:29;;;;;;;12.60;2.33;;;;;;;;;;5047279;28;20033;-29
2024/02/01 15:16:56;;;;;;;5.97;2.15;;;;;;;;;;5049696;28;20036;-29
2024/02/01 15:19:23;;;;;;;8.90;2.30;;;;;;;;;;5050505;28;20036;-29
2024/02/01 15:21:50;;;;;;;8.77;2.22;;;;;;;;;;5051695;28;20028;-29
2024/02/01 15:24:17;;;;;;;11.15;2.53;;;;;;;;;;5044748;28;20043;-30
2024/02/01 15:26:44;;;;;;;11.25;2.30;;;;;;;;;;5051309;28;20024;-28
2024/02/01 15:29:16;;;;;;;11.13;2.80;;;;;;;;;;5042457;28;20369;-28
2024/02/01 15:31:43;;;;;;;;;;;;;;;;;;5051665;28;20047;-29
2024/02/01 15:34:15;;;;;;;12.13;2.30;;;;;;;;;;5050633;28;19912;-29
2024/02/01 15:36:42;;;;;;;12.40;2.28;;;;;;;;;;5050596;28;20410;-30
2024/02/01 15:39:12;;;;;;;12.35;2.65;;;;;;;;;;5035750;28;20025;-29
2024/02/01 15:41:39;;;;;;;14.15;2.20;;;;;;;;;;5051099;28;20119;-29
2024/02/01 15:44:06;;;;;;;11.35;2.00;;;;;;;;;;5047653;28;20021;-29
2024/02/01 15:46:33;;;;;;;8.93;1.80;;;;;;;;;;5036625;28;20552;-28
2024/02/01 15:49:00;;;;;;;18.50;2.65;;;;;;;;;;5049504;28;20043;-29
2024/02/01 15:51:27;;;;;;;9.77;2.30;;;;;;;;;;5051154;28;20031;-30